sensor_id;sensor_type;location;lat;lon;timestamp;P1;durP1;ratioP1;P2;durP2;ratioP2
13720;SDS011;6932;51.438;5.470;2023-07-31T00:00:32;8.60;;;3.60;;
13720;SDS011;6932;51.438;5.470;2023-07-31T00:02:58;10.40;;;3.80;;
13720;SDS011;6932;51.438;5.470;2023-07-31T00:05:23;9.53;;;3.53;;
13720;SDS011;6932;51.438;5.470;2023-07-31T00:07:49;9.47;;;4.10;;
13720;SDS011;6932;51.438;5.470;2023-07-31T00:10:15;7.83;;;3.30;;
13720;SDS011;6932;51.438;5.470;2023-07-31T00:12:42;9.33;;;3.60;;
13720;SDS011;6932;51.438;5.470;2023-07-31T00:15:10;8.57;;;3.73;;
13720;SDS011;6932;51.438;5.470;2023-07-31T00:17:36;10.47;;;4.50;;
13720;SDS011;6932;51.438;5.470;2023-07-31T00:20:02;11.50;;;3.80;;
13720;SDS011;6932;51.438;5.470;2023-07-31T00:22:28;9.33;;;3.73;;
13720;SDS011;6932;51.438;5.470;2023-07-31T00:24:55;11.80;;;3.73;;
13720;SDS011;6932;51.438;5.470;2023-07-31T00:27:22;9.83;;;3.93;;
13720;SDS011;6932;51.438;5.470;2023-07-31T00:29:47;6.47;;;3.30;;
13720;SDS011;6932;51.438;5.470;2023-07-31T00:32:13;11.07;;;3.90;;
13720;SDS011;6932;51.438;5.470;2023-07-31T00:34:39;14.93;;;3.47;;
13720;SDS011;6932;51.438;5.470;2023-07-31T00:37:05;11.17;;;3.50;;
13720;SDS011;6932;51.438;5.470;2023-07-31T00:39:31;9.70;;;3.70;;
13720;SDS011;6932;51.438;5.470;2023-07-31T00:41:59;7.27;;;3.00;;
13720;SDS011;6932;51.438;5.470;2023-07-31T00:44:24;9.03;;;3.27;;
13720;SDS011;6932;51.438;5.470;2023-07-31T00:46:50;10.57;;;3.83;;
13720;SDS011;6932;51.438;5.470;2023-07-31T00:49:16;10.43;;;3.37;;
13720;SDS011;6932;51.438;5.470;2023-07-31T00:51:42;7.10;;;2.73;;
13720;SDS011;6932;51.438;5.470;2023-07-31T00:54:08;8.33;;;3.13;;
13720;SDS011;6932;51.438;5.470;2023-07-31T00:56:34;10.90;;;3.40;;
13720;SDS011;6932;51.438;5.470;2023-07-31T00:59:00;9.40;;;3.20;;
13720;SDS011;6932;51.438;5.470;2023-07-31T01:01:26;9.27;;;3.23;;
13720;SDS011;6932;51.438;5.470;2023-07-31T01:03:52;9.13;;;3.20;;
13720;SDS011;6932;51.438;5.470;2023-07-31T01:06:28;7.70;;;3.00;;
13720;SDS011;6932;51.438;5.470;2023-07-31T01:09:29;7.77;;;3.10;;
13720;SDS011;6932;51.438;5.470;2023-07-31T01:12:23;9.83;;;3.40;;
13720;SDS011;6932;51.438;5.470;2023-07-31T01:15:02;6.80;;;3.00;;
13720;SDS011;6932;51.438;5.470;2023-07-31T01:17:36;9.60;;;3.40;;
13720;SDS011;6932;51.438;5.470;2023-07-31T01:20:03;8.90;;;3.30;;
13720;SDS011;6932;51.438;5.470;2023-07-31T01:28:20;7.93;;;3.37;;
13720;SDS011;6932;51.438;5.470;2023-07-31T01:31:14;6.90;;;2.90;;
13720;SDS011;6932;51.438;5.470;2023-07-31T01:33:46;7.23;;;3.50;;
13720;SDS011;6932;51.438;5.470;2023-07-31T01:36:13;9.73;;;3.60;;
13720;SDS011;6932;51.438;5.470;2023-07-31T01:38:39;8.17;;;3.43;;
13720;SDS011;6932;51.438;5.470;2023-07-31T01:41:05;8.30;;;3.53;;
13720;SDS011;6932;51.438;5.470;2023-07-31T01:43:30;9.93;;;3.50;;
13720;SDS011;6932;51.438;5.470;2023-07-31T01:45:56;9.60;;;3.37;;
13720;SDS011;6932;51.438;5.470;2023-07-31T01:48:22;9.73;;;3.20;;
13720;SDS011;6932;51.438;5.470;2023-07-31T01:50:47;7.37;;;2.90;;
13720;SDS011;6932;51.438;5.470;2023-07-31T01:53:13;8.20;;;3.43;;
13720;SDS011;6932;51.438;5.470;2023-07-31T01:55:39;8.80;;;3.50;;
13720;SDS011;6932;51.438;5.470;2023-07-31T01:58:05;10.83;;;3.57;;
13720;SDS011;6932;51.438;5.470;2023-07-31T02:00:31;7.03;;;3.20;;
13720;SDS011;6932;51.438;5.470;2023-07-31T02:02:56;8.43;;;3.37;;
13720;SDS011;6932;51.438;5.470;2023-07-31T02:05:22;8.63;;;3.70;;
13720;SDS011;6932;51.438;5.470;2023-07-31T02:07:48;7.80;;;3.40;;
13720;SDS011;6932;51.438;5.470;2023-07-31T02:10:13;9.53;;;3.20;;
13720;SDS011;6932;51.438;5.470;2023-07-31T02:12:40;9.40;;;3.67;;
13720;SDS011;6932;51.438;5.470;2023-07-31T02:15:06;7.00;;;3.00;;
13720;SDS011;6932;51.438;5.470;2023-07-31T02:17:32;9.73;;;3.53;;
13720;SDS011;6932;51.438;5.470;2023-07-31T02:19:58;8.80;;;3.63;;
13720;SDS011;6932;51.438;5.470;2023-07-31T02:22:25;8.10;;;3.47;;
13720;SDS011;6932;51.438;5.470;2023-07-31T02:24:50;9.27;;;3.93;;
13720;SDS011;6932;51.438;5.470;2023-07-31T02:27:16;8.97;;;3.60;;
13720;SDS011;6932;51.438;5.470;2023-07-31T02:29:42;7.77;;;3.50;;
13720;SDS011;6932;51.438;5.470;2023-07-31T02:32:07;8.83;;;3.50;;
13720;SDS011;6932;51.438;5.470;2023-07-31T02:34:33;11.93;;;3.80;;
13720;SDS011;6932;51.438;5.470;2023-07-31T02:36:59;9.30;;;3.63;;
13720;SDS011;6932;51.438;5.470;2023-07-31T02:39:25;7.80;;;3.20;;
13720;SDS011;6932;51.438;5.470;2023-07-31T02:41:50;12.50;;;3.87;;
13720;SDS011;6932;51.438;5.470;2023-07-31T02:44:16;11.50;;;3.70;;
13720;SDS011;6932;51.438;5.470;2023-07-31T02:46:42;10.43;;;3.23;;
13720;SDS011;6932;51.438;5.470;2023-07-31T02:49:07;10.63;;;3.60;;
13720;SDS011;6932;51.438;5.470;2023-07-31T02:51:33;8.80;;;3.60;;
13720;SDS011;6932;51.438;5.470;2023-07-31T02:53:59;8.33;;;3.80;;
13720;SDS011;6932;51.438;5.470;2023-07-31T02:56:25;7.57;;;3.20;;
13720;SDS011;6932;51.438;5.470;2023-07-31T02:58:50;9.30;;;3.50;;
13720;SDS011;6932;51.438;5.470;2023-07-31T03:01:16;7.50;;;3.40;;
13720;SDS011;6932;51.438;5.470;2023-07-31T03:03:42;7.53;;;3.20;;
13720;SDS011;6932;51.438;5.470;2023-07-31T03:06:07;9.97;;;3.33;;
13720;SDS011;6932;51.438;5.470;2023-07-31T03:08:33;8.10;;;3.50;;
13720;SDS011;6932;51.438;5.470;2023-07-31T03:10:59;7.70;;;3.30;;
13720;SDS011;6932;51.438;5.470;2023-07-31T03:13:24;9.00;;;3.63;;
13720;SDS011;6932;51.438;5.470;2023-07-31T03:15:50;7.93;;;3.47;;
13720;SDS011;6932;51.438;5.470;2023-07-31T03:18:16;10.37;;;3.77;;
13720;SDS011;6932;51.438;5.470;2023-07-31T03:20:42;8.83;;;3.93;;
13720;SDS011;6932;51.438;5.470;2023-07-31T03:23:09;9.33;;;3.40;;
13720;SDS011;6932;51.438;5.470;2023-07-31T03:25:35;10.43;;;3.93;;
13720;SDS011;6932;51.438;5.470;2023-07-31T03:28:01;9.50;;;3.37;;
13720;SDS011;6932;51.438;5.470;2023-07-31T03:30:26;8.60;;;3.63;;
13720;SDS011;6932;51.438;5.470;2023-07-31T03:32:52;10.87;;;3.70;;
13720;SDS011;6932;51.438;5.470;2023-07-31T03:35:18;10.97;;;3.50;;
13720;SDS011;6932;51.438;5.470;2023-07-31T03:37:43;8.43;;;3.30;;
13720;SDS011;6932;51.438;5.470;2023-07-31T03:40:09;7.70;;;3.10;;
13720;SDS011;6932;51.438;5.470;2023-07-31T03:42:36;8.13;;;3.50;;
13720;SDS011;6932;51.438;5.470;2023-07-31T03:45:01;7.60;;;3.50;;
13720;SDS011;6932;51.438;5.470;2023-07-31T03:47:27;9.03;;;3.63;;
13720;SDS011;6932;51.438;5.470;2023-07-31T03:49:54;9.53;;;3.77;;
13720;SDS011;6932;51.438;5.470;2023-07-31T03:52:20;9.63;;;3.47;;
13720;SDS011;6932;51.438;5.470;2023-07-31T03:54:45;10.60;;;3.40;;
13720;SDS011;6932;51.438;5.470;2023-07-31T03:57:11;8.67;;;3.30;;
13720;SDS011;6932;51.438;5.470;2023-07-31T03:59:37;8.80;;;3.00;;
13720;SDS011;6932;51.438;5.470;2023-07-31T04:02:05;6.77;;;3.10;;
13720;SDS011;6932;51.438;5.470;2023-07-31T04:04:31;8.80;;;3.23;;
13720;SDS011;6932;51.438;5.470;2023-07-31T04:06:56;10.00;;;3.53;;
13720;SDS011;6932;51.438;5.470;2023-07-31T04:09:22;9.27;;;3.50;;
13720;SDS011;6932;51.438;5.470;2023-07-31T04:11:48;8.07;;;3.40;;
13720;SDS011;6932;51.438;5.470;2023-07-31T04:14:13;8.90;;;3.60;;
13720;SDS011;6932;51.438;5.470;2023-07-31T04:16:39;11.37;;;3.40;;
13720;SDS011;6932;51.438;5.470;2023-07-31T04:19:05;9.30;;;4.00;;
13720;SDS011;6932;51.438;5.470;2023-07-31T04:21:30;6.80;;;2.97;;
13720;SDS011;6932;51.438;5.470;2023-07-31T04:23:56;8.07;;;3.33;;
13720;SDS011;6932;51.438;5.470;2023-07-31T04:26:23;8.17;;;3.27;;
13720;SDS011;6932;51.438;5.470;2023-07-31T04:28:49;6.97;;;3.10;;
13720;SDS011;6932;51.438;5.470;2023-07-31T04:31:14;8.50;;;3.60;;
13720;SDS011;6932;51.438;5.470;2023-07-31T04:33:40;7.83;;;3.40;;
13720;SDS011;6932;51.438;5.470;2023-07-31T04:36:06;8.77;;;3.30;;
13720;SDS011;6932;51.438;5.470;2023-07-31T04:38:31;8.67;;;3.67;;
13720;SDS011;6932;51.438;5.470;2023-07-31T04:40:57;8.47;;;3.43;;
13720;SDS011;6932;51.438;5.470;2023-07-31T04:43:23;9.40;;;3.47;;
13720;SDS011;6932;51.438;5.470;2023-07-31T04:45:49;8.10;;;3.60;;
13720;SDS011;6932;51.438;5.470;2023-07-31T04:48:15;9.57;;;3.50;;
13720;SDS011;6932;51.438;5.470;2023-07-31T04:50:41;8.77;;;4.00;;
13720;SDS011;6932;51.438;5.470;2023-07-31T04:53:07;5.70;;;3.17;;
13720;SDS011;6932;51.438;5.470;2023-07-31T04:55:32;9.53;;;3.73;;
13720;SDS011;6932;51.438;5.470;2023-07-31T04:57:58;7.63;;;3.40;;
13720;SDS011;6932;51.438;5.470;2023-07-31T05:00:24;6.83;;;3.40;;
13720;SDS011;6932;51.438;5.470;2023-07-31T05:02:50;8.43;;;3.57;;
13720;SDS011;6932;51.438;5.470;2023-07-31T05:05:16;7.40;;;3.30;;
13720;SDS011;6932;51.438;5.470;2023-07-31T05:07:41;6.60;;;3.13;;
13720;SDS011;6932;51.438;5.470;2023-07-31T05:10:08;6.20;;;3.27;;
13720;SDS011;6932;51.438;5.470;2023-07-31T05:12:34;7.03;;;3.37;;
13720;SDS011;6932;51.438;5.470;2023-07-31T05:15:00;9.67;;;3.70;;
13720;SDS011;6932;51.438;5.470;2023-07-31T05:17:25;5.80;;;3.00;;
13720;SDS011;6932;51.438;5.470;2023-07-31T05:19:51;6.00;;;3.00;;
13720;SDS011;6932;51.438;5.470;2023-07-31T05:22:17;8.00;;;3.13;;
13720;SDS011;6932;51.438;5.470;2023-07-31T05:24:42;6.53;;;3.00;;
13720;SDS011;6932;51.438;5.470;2023-07-31T05:27:08;5.20;;;2.73;;
13720;SDS011;6932;51.438;5.470;2023-07-31T05:29:34;5.30;;;2.80;;
13720;SDS011;6932;51.438;5.470;2023-07-31T05:32:00;5.23;;;3.00;;
13720;SDS011;6932;51.438;5.470;2023-07-31T05:34:26;5.90;;;2.97;;
13720;SDS011;6932;51.438;5.470;2023-07-31T05:36:53;4.17;;;2.73;;
13720;SDS011;6932;51.438;5.470;2023-07-31T05:39:19;7.13;;;2.77;;
13720;SDS011;6932;51.438;5.470;2023-07-31T05:41:44;4.57;;;2.70;;
13720;SDS011;6932;51.438;5.470;2023-07-31T05:44:10;5.27;;;2.70;;
13720;SDS011;6932;51.438;5.470;2023-07-31T05:46:36;5.37;;;2.90;;
13720;SDS011;6932;51.438;5.470;2023-07-31T05:49:02;5.73;;;3.03;;
13720;SDS011;6932;51.438;5.470;2023-07-31T05:51:27;7.00;;;3.03;;
13720;SDS011;6932;51.438;5.470;2023-07-31T05:53:53;6.73;;;2.80;;
13720;SDS011;6932;51.438;5.470;2023-07-31T05:56:19;4.87;;;2.60;;
13720;SDS011;6932;51.438;5.470;2023-07-31T05:58:45;4.37;;;2.77;;
13720;SDS011;6932;51.438;5.470;2023-07-31T06:01:10;4.17;;;2.50;;
13720;SDS011;6932;51.438;5.470;2023-07-31T06:03:36;3.30;;;2.33;;
13720;SDS011;6932;51.438;5.470;2023-07-31T06:06:02;4.40;;;3.00;;
13720;SDS011;6932;51.438;5.470;2023-07-31T06:08:28;4.73;;;2.37;;
13720;SDS011;6932;51.438;5.470;2023-07-31T06:10:53;4.43;;;2.47;;
13720;SDS011;6932;51.438;5.470;2023-07-31T06:13:19;5.97;;;2.60;;
13720;SDS011;6932;51.438;5.470;2023-07-31T06:15:45;3.23;;;2.50;;
13720;SDS011;6932;51.438;5.470;2023-07-31T06:18:11;4.77;;;2.63;;
13720;SDS011;6932;51.438;5.470;2023-07-31T06:20:36;5.20;;;2.57;;
13720;SDS011;6932;51.438;5.470;2023-07-31T06:23:05;5.47;;;3.20;;
13720;SDS011;6932;51.438;5.470;2023-07-31T06:25:31;3.87;;;2.70;;
13720;SDS011;6932;51.438;5.470;2023-07-31T06:27:57;4.27;;;2.73;;
13720;SDS011;6932;51.438;5.470;2023-07-31T06:30:22;4.73;;;2.87;;
13720;SDS011;6932;51.438;5.470;2023-07-31T06:32:48;5.20;;;2.70;;
13720;SDS011;6932;51.438;5.470;2023-07-31T06:35:14;4.17;;;2.67;;
13720;SDS011;6932;51.438;5.470;2023-07-31T06:37:40;4.67;;;2.70;;
13720;SDS011;6932;51.438;5.470;2023-07-31T06:40:08;4.23;;;2.57;;
13720;SDS011;6932;51.438;5.470;2023-07-31T06:42:35;5.23;;;2.80;;
13720;SDS011;6932;51.438;5.470;2023-07-31T06:45:01;5.57;;;3.10;;
13720;SDS011;6932;51.438;5.470;2023-07-31T06:47:27;3.70;;;2.43;;
13720;SDS011;6932;51.438;5.470;2023-07-31T06:49:53;4.90;;;2.50;;
13720;SDS011;6932;51.438;5.470;2023-07-31T06:52:19;5.43;;;2.73;;
13720;SDS011;6932;51.438;5.470;2023-07-31T06:54:59;4.60;;;2.53;;
13720;SDS011;6932;51.438;5.470;2023-07-31T06:57:43;4.23;;;2.30;;
13720;SDS011;6932;51.438;5.470;2023-07-31T07:00:09;3.53;;;2.50;;
13720;SDS011;6932;51.438;5.470;2023-07-31T07:02:35;3.43;;;2.37;;
13720;SDS011;6932;51.438;5.470;2023-07-31T07:05:01;3.27;;;2.40;;
13720;SDS011;6932;51.438;5.470;2023-07-31T07:07:27;2.97;;;2.43;;
13720;SDS011;6932;51.438;5.470;2023-07-31T07:09:53;3.50;;;2.23;;
13720;SDS011;6932;51.438;5.470;2023-07-31T07:12:18;3.43;;;2.40;;
13720;SDS011;6932;51.438;5.470;2023-07-31T07:14:44;3.30;;;2.60;;
13720;SDS011;6932;51.438;5.470;2023-07-31T07:17:13;2.50;;;2.10;;
13720;SDS011;6932;51.438;5.470;2023-07-31T07:19:40;3.70;;;2.40;;
13720;SDS011;6932;51.438;5.470;2023-07-31T07:22:06;3.57;;;2.23;;
13720;SDS011;6932;51.438;5.470;2023-07-31T07:24:32;4.63;;;2.40;;
13720;SDS011;6932;51.438;5.470;2023-07-31T07:26:58;3.17;;;2.30;;
13720;SDS011;6932;51.438;5.470;2023-07-31T07:29:24;3.40;;;2.20;;
13720;SDS011;6932;51.438;5.470;2023-07-31T07:31:50;2.80;;;2.10;;
13720;SDS011;6932;51.438;5.470;2023-07-31T07:34:15;2.97;;;2.37;;
13720;SDS011;6932;51.438;5.470;2023-07-31T07:36:41;3.97;;;2.30;;
13720;SDS011;6932;51.438;5.470;2023-07-31T07:39:08;3.77;;;2.20;;
13720;SDS011;6932;51.438;5.470;2023-07-31T07:41:35;3.57;;;2.57;;
13720;SDS011;6932;51.438;5.470;2023-07-31T07:44:00;2.80;;;2.23;;
13720;SDS011;6932;51.438;5.470;2023-07-31T07:46:26;3.77;;;2.60;;
13720;SDS011;6932;51.438;5.470;2023-07-31T07:48:52;4.77;;;2.53;;
13720;SDS011;6932;51.438;5.470;2023-07-31T07:51:18;4.13;;;2.60;;
13720;SDS011;6932;51.438;5.470;2023-07-31T07:53:43;4.60;;;2.90;;
13720;SDS011;6932;51.438;5.470;2023-07-31T07:56:09;4.53;;;2.70;;
13720;SDS011;6932;51.438;5.470;2023-07-31T07:58:35;5.20;;;2.90;;
13720;SDS011;6932;51.438;5.470;2023-07-31T08:01:00;4.97;;;3.10;;
13720;SDS011;6932;51.438;5.470;2023-07-31T08:03:26;4.83;;;2.70;;
13720;SDS011;6932;51.438;5.470;2023-07-31T08:05:52;5.93;;;3.20;;
13720;SDS011;6932;51.438;5.470;2023-07-31T08:08:23;5.47;;;3.00;;
13720;SDS011;6932;51.438;5.470;2023-07-31T08:10:48;7.07;;;3.10;;
13720;SDS011;6932;51.438;5.470;2023-07-31T08:13:14;5.53;;;3.10;;
13720;SDS011;6932;51.438;5.470;2023-07-31T08:15:43;5.27;;;3.07;;
13720;SDS011;6932;51.438;5.470;2023-07-31T08:18:09;5.30;;;3.10;;
13720;SDS011;6932;51.438;5.470;2023-07-31T08:20:36;5.20;;;3.07;;
13720;SDS011;6932;51.438;5.470;2023-07-31T08:23:02;5.40;;;3.00;;
13720;SDS011;6932;51.438;5.470;2023-07-31T08:25:29;4.63;;;3.00;;
13720;SDS011;6932;51.438;5.470;2023-07-31T08:27:55;3.57;;;2.40;;
13720;SDS011;6932;51.438;5.470;2023-07-31T08:30:21;5.80;;;3.07;;
13720;SDS011;6932;51.438;5.470;2023-07-31T08:32:47;4.00;;;2.77;;
13720;SDS011;6932;51.438;5.470;2023-07-31T08:35:12;5.17;;;3.00;;
13720;SDS011;6932;51.438;5.470;2023-07-31T08:37:38;5.13;;;3.20;;
13720;SDS011;6932;51.438;5.470;2023-07-31T08:40:05;5.57;;;2.83;;
13720;SDS011;6932;51.438;5.470;2023-07-31T08:42:31;4.53;;;2.93;;
13720;SDS011;6932;51.438;5.470;2023-07-31T08:44:57;5.13;;;2.93;;
13720;SDS011;6932;51.438;5.470;2023-07-31T08:47:25;4.23;;;2.80;;
13720;SDS011;6932;51.438;5.470;2023-07-31T08:49:53;5.40;;;3.13;;
13720;SDS011;6932;51.438;5.470;2023-07-31T08:52:20;6.30;;;3.20;;
13720;SDS011;6932;51.438;5.470;2023-07-31T08:54:46;4.80;;;2.90;;
13720;SDS011;6932;51.438;5.470;2023-07-31T08:57:12;5.10;;;2.87;;
13720;SDS011;6932;51.438;5.470;2023-07-31T08:59:39;4.50;;;3.03;;
13720;SDS011;6932;51.438;5.470;2023-07-31T09:02:07;5.63;;;3.20;;
13720;SDS011;6932;51.438;5.470;2023-07-31T09:04:33;5.17;;;2.77;;
13720;SDS011;6932;51.438;5.470;2023-07-31T09:07:00;5.40;;;3.03;;
13720;SDS011;6932;51.438;5.470;2023-07-31T09:09:29;4.97;;;3.20;;
13720;SDS011;6932;51.438;5.470;2023-07-31T09:11:57;6.03;;;2.90;;
13720;SDS011;6932;51.438;5.470;2023-07-31T09:14:24;6.03;;;3.27;;
13720;SDS011;6932;51.438;5.470;2023-07-31T09:16:51;6.23;;;3.20;;
13720;SDS011;6932;51.438;5.470;2023-07-31T09:19:25;6.07;;;3.00;;
13720;SDS011;6932;51.438;5.470;2023-07-31T09:21:54;6.47;;;3.20;;
13720;SDS011;6932;51.438;5.470;2023-07-31T09:24:26;6.80;;;3.23;;
13720;SDS011;6932;51.438;5.470;2023-07-31T09:26:59;5.00;;;2.93;;
13720;SDS011;6932;51.438;5.470;2023-07-31T09:29:27;7.27;;;3.53;;
13720;SDS011;6932;51.438;5.470;2023-07-31T09:31:54;6.03;;;2.90;;
13720;SDS011;6932;51.438;5.470;2023-07-31T09:34:27;5.17;;;2.90;;
13720;SDS011;6932;51.438;5.470;2023-07-31T09:36:57;5.40;;;2.80;;
13720;SDS011;6932;51.438;5.470;2023-07-31T09:39:27;5.80;;;3.20;;
13720;SDS011;6932;51.438;5.470;2023-07-31T09:41:54;5.77;;;3.13;;
13720;SDS011;6932;51.438;5.470;2023-07-31T09:44:21;3.63;;;2.80;;
13720;SDS011;6932;51.438;5.470;2023-07-31T09:47:03;3.83;;;2.70;;
13720;SDS011;6932;51.438;5.470;2023-07-31T09:49:29;5.17;;;2.83;;
13720;SDS011;6932;51.438;5.470;2023-07-31T09:51:55;7.60;;;3.07;;
13720;SDS011;6932;51.438;5.470;2023-07-31T09:54:21;5.33;;;2.73;;
13720;SDS011;6932;51.438;5.470;2023-07-31T09:56:47;6.87;;;2.97;;
13720;SDS011;6932;51.438;5.470;2023-07-31T09:59:15;5.87;;;2.80;;
13720;SDS011;6932;51.438;5.470;2023-07-31T10:01:44;3.97;;;2.57;;
13720;SDS011;6932;51.438;5.470;2023-07-31T10:04:12;4.30;;;2.60;;
13720;SDS011;6932;51.438;5.470;2023-07-31T10:06:39;3.97;;;2.50;;
13720;SDS011;6932;51.438;5.470;2023-07-31T10:09:09;3.53;;;2.43;;
13720;SDS011;6932;51.438;5.470;2023-07-31T10:11:46;3.83;;;2.50;;
13720;SDS011;6932;51.438;5.470;2023-07-31T10:14:21;4.77;;;2.57;;
13720;SDS011;6932;51.438;5.470;2023-07-31T10:16:50;4.70;;;2.40;;
13720;SDS011;6932;51.438;5.470;2023-07-31T10:19:18;4.43;;;2.70;;
13720;SDS011;6932;51.438;5.470;2023-07-31T10:21:45;4.43;;;2.60;;
13720;SDS011;6932;51.438;5.470;2023-07-31T10:24:13;6.00;;;2.53;;
13720;SDS011;6932;51.438;5.470;2023-07-31T10:26:41;3.80;;;2.20;;
13720;SDS011;6932;51.438;5.470;2023-07-31T10:29:14;4.53;;;2.53;;
13720;SDS011;6932;51.438;5.470;2023-07-31T10:31:42;4.13;;;2.40;;
13720;SDS011;6932;51.438;5.470;2023-07-31T10:34:10;4.73;;;2.27;;
13720;SDS011;6932;51.438;5.470;2023-07-31T10:36:36;3.73;;;2.50;;
13720;SDS011;6932;51.438;5.470;2023-07-31T10:39:03;4.03;;;2.20;;
13720;SDS011;6932;51.438;5.470;2023-07-31T10:41:49;3.43;;;2.30;;
13720;SDS011;6932;51.438;5.470;2023-07-31T10:44:16;5.30;;;2.47;;
13720;SDS011;6932;51.438;5.470;2023-07-31T10:46:42;4.20;;;2.20;;
13720;SDS011;6932;51.438;5.470;2023-07-31T10:49:12;4.03;;;2.30;;
13720;SDS011;6932;51.438;5.470;2023-07-31T10:51:47;4.47;;;2.50;;
13720;SDS011;6932;51.438;5.470;2023-07-31T10:54:13;4.93;;;2.50;;
13720;SDS011;6932;51.438;5.470;2023-07-31T10:56:46;4.20;;;2.30;;
13720;SDS011;6932;51.438;5.470;2023-07-31T10:59:14;3.83;;;2.30;;
13720;SDS011;6932;51.438;5.470;2023-07-31T11:04:28;3.50;;;2.53;;
13720;SDS011;6932;51.438;5.470;2023-07-31T11:07:00;5.93;;;2.53;;
13720;SDS011;6932;51.438;5.470;2023-07-31T11:09:29;3.90;;;2.50;;
13720;SDS011;6932;51.438;5.470;2023-07-31T11:11:58;5.23;;;2.60;;
13720;SDS011;6932;51.438;5.470;2023-07-31T11:14:25;8.63;;;3.10;;
13720;SDS011;6932;51.438;5.470;2023-07-31T11:16:51;3.57;;;2.30;;
13720;SDS011;6932;51.438;5.470;2023-07-31T11:19:21;3.80;;;2.73;;
13720;SDS011;6932;51.438;5.470;2023-07-31T11:21:50;4.63;;;2.73;;
13720;SDS011;6932;51.438;5.470;2023-07-31T11:24:18;4.33;;;2.93;;
13720;SDS011;6932;51.438;5.470;2023-07-31T11:26:48;3.77;;;2.43;;
13720;SDS011;6932;51.438;5.470;2023-07-31T11:29:18;4.87;;;2.40;;
13720;SDS011;6932;51.438;5.470;2023-07-31T11:31:46;4.87;;;2.53;;
13720;SDS011;6932;51.438;5.470;2023-07-31T11:34:14;3.93;;;2.50;;
13720;SDS011;6932;51.438;5.470;2023-07-31T11:36:40;3.87;;;2.53;;
13720;SDS011;6932;51.438;5.470;2023-07-31T11:39:06;2.83;;;2.30;;
13720;SDS011;6932;51.438;5.470;2023-07-31T11:41:34;3.33;;;2.30;;
13720;SDS011;6932;51.438;5.470;2023-07-31T11:44:00;4.43;;;2.47;;
13720;SDS011;6932;51.438;5.470;2023-07-31T11:46:27;2.87;;;2.27;;
13720;SDS011;6932;51.438;5.470;2023-07-31T11:48:59;4.63;;;2.10;;
13720;SDS011;6932;51.438;5.470;2023-07-31T11:51:25;5.17;;;2.20;;
13720;SDS011;6932;51.438;5.470;2023-07-31T11:53:55;3.53;;;2.23;;
13720;SDS011;6932;51.438;5.470;2023-07-31T11:56:24;3.20;;;2.27;;
13720;SDS011;6932;51.438;5.470;2023-07-31T11:58:53;3.57;;;2.33;;
13720;SDS011;6932;51.438;5.470;2023-07-31T12:01:24;3.37;;;2.40;;
13720;SDS011;6932;51.438;5.470;2023-07-31T12:03:52;2.57;;;2.03;;
13720;SDS011;6932;51.438;5.470;2023-07-31T12:06:20;3.70;;;2.63;;
13720;SDS011;6932;51.438;5.470;2023-07-31T12:08:46;3.67;;;2.13;;
13720;SDS011;6932;51.438;5.470;2023-07-31T12:11:14;2.70;;;2.20;;
13720;SDS011;6932;51.438;5.470;2023-07-31T12:13:40;3.23;;;2.33;;
13720;SDS011;6932;51.438;5.470;2023-07-31T12:16:06;4.90;;;2.67;;
13720;SDS011;6932;51.438;5.470;2023-07-31T12:18:35;2.87;;;2.20;;
13720;SDS011;6932;51.438;5.470;2023-07-31T12:21:06;4.80;;;2.50;;
13720;SDS011;6932;51.438;5.470;2023-07-31T12:23:34;3.90;;;2.33;;
13720;SDS011;6932;51.438;5.470;2023-07-31T12:26:05;3.97;;;2.30;;
13720;SDS011;6932;51.438;5.470;2023-07-31T12:31:05;5.00;;;2.90;;
13720;SDS011;6932;51.438;5.470;2023-07-31T12:33:34;5.07;;;2.60;;
13720;SDS011;6932;51.438;5.470;2023-07-31T12:36:02;4.33;;;2.60;;
13720;SDS011;6932;51.438;5.470;2023-07-31T12:38:40;4.60;;;2.70;;
13720;SDS011;6932;51.438;5.470;2023-07-31T12:41:06;4.43;;;3.00;;
13720;SDS011;6932;51.438;5.470;2023-07-31T12:43:36;4.90;;;3.00;;
13720;SDS011;6932;51.438;5.470;2023-07-31T12:46:05;5.23;;;3.13;;
13720;SDS011;6932;51.438;5.470;2023-07-31T12:48:34;4.97;;;3.17;;
13720;SDS011;6932;51.438;5.470;2023-07-31T12:51:04;4.17;;;2.90;;
13720;SDS011;6932;51.438;5.470;2023-07-31T12:53:31;6.43;;;3.20;;
13720;SDS011;6932;51.438;5.470;2023-07-31T12:55:58;5.40;;;3.00;;
13720;SDS011;6932;51.438;5.470;2023-07-31T12:58:24;6.37;;;3.40;;
13720;SDS011;6932;51.438;5.470;2023-07-31T13:00:50;5.93;;;3.20;;
13720;SDS011;6932;51.438;5.470;2023-07-31T13:03:16;7.30;;;3.20;;
13720;SDS011;6932;51.438;5.470;2023-07-31T13:05:42;7.30;;;3.43;;
13720;SDS011;6932;51.438;5.470;2023-07-31T13:08:07;6.73;;;3.23;;
13720;SDS011;6932;51.438;5.470;2023-07-31T13:10:33;5.70;;;2.93;;
13720;SDS011;6932;51.438;5.470;2023-07-31T13:12:59;6.30;;;3.40;;
13720;SDS011;6932;51.438;5.470;2023-07-31T13:15:25;5.97;;;3.30;;
13720;SDS011;6932;51.438;5.470;2023-07-31T13:17:50;4.83;;;3.00;;
13720;SDS011;6932;51.438;5.470;2023-07-31T13:20:16;5.57;;;3.10;;
13720;SDS011;6932;51.438;5.470;2023-07-31T13:22:42;8.33;;;3.50;;
13720;SDS011;6932;51.438;5.470;2023-07-31T13:25:07;5.83;;;3.20;;
13720;SDS011;6932;51.438;5.470;2023-07-31T13:27:35;5.83;;;3.10;;
13720;SDS011;6932;51.438;5.470;2023-07-31T13:30:01;4.93;;;3.20;;
13720;SDS011;6932;51.438;5.470;2023-07-31T13:32:27;8.47;;;3.13;;
13720;SDS011;6932;51.438;5.470;2023-07-31T13:34:53;6.30;;;3.20;;
13720;SDS011;6932;51.438;5.470;2023-07-31T13:37:18;6.67;;;3.10;;
13720;SDS011;6932;51.438;5.470;2023-07-31T13:39:44;5.13;;;3.10;;
13720;SDS011;6932;51.438;5.470;2023-07-31T13:42:10;6.03;;;3.27;;
13720;SDS011;6932;51.438;5.470;2023-07-31T13:44:37;8.57;;;3.40;;
13720;SDS011;6932;51.438;5.470;2023-07-31T13:47:04;6.80;;;3.33;;
13720;SDS011;6932;51.438;5.470;2023-07-31T13:49:30;9.90;;;3.50;;
13720;SDS011;6932;51.438;5.470;2023-07-31T13:51:57;7.60;;;3.23;;
13720;SDS011;6932;51.438;5.470;2023-07-31T13:54:23;4.93;;;3.23;;
13720;SDS011;6932;51.438;5.470;2023-07-31T13:56:50;8.30;;;3.50;;
13720;SDS011;6932;51.438;5.470;2023-07-31T13:59:17;5.03;;;3.10;;
13720;SDS011;6932;51.438;5.470;2023-07-31T14:01:43;7.00;;;3.37;;
13720;SDS011;6932;51.438;5.470;2023-07-31T14:04:10;6.83;;;3.43;;
13720;SDS011;6932;51.438;5.470;2023-07-31T14:06:36;6.70;;;3.20;;
13720;SDS011;6932;51.438;5.470;2023-07-31T14:09:02;9.53;;;3.90;;
13720;SDS011;6932;51.438;5.470;2023-07-31T14:11:28;6.40;;;3.57;;
13720;SDS011;6932;51.438;5.470;2023-07-31T14:13:56;6.17;;;3.50;;
13720;SDS011;6932;51.438;5.470;2023-07-31T14:16:22;5.90;;;3.23;;
13720;SDS011;6932;51.438;5.470;2023-07-31T14:18:48;7.13;;;3.30;;
13720;SDS011;6932;51.438;5.470;2023-07-31T14:21:14;6.60;;;3.50;;
13720;SDS011;6932;51.438;5.470;2023-07-31T14:23:40;5.30;;;3.17;;
13720;SDS011;6932;51.438;5.470;2023-07-31T14:26:06;5.07;;;3.40;;
13720;SDS011;6932;51.438;5.470;2023-07-31T14:28:32;6.03;;;3.47;;
13720;SDS011;6932;51.438;5.470;2023-07-31T14:30:58;7.90;;;3.10;;
13720;SDS011;6932;51.438;5.470;2023-07-31T14:33:24;5.67;;;3.20;;
13720;SDS011;6932;51.438;5.470;2023-07-31T14:35:50;4.73;;;2.80;;
13720;SDS011;6932;51.438;5.470;2023-07-31T14:38:16;4.23;;;2.87;;
13720;SDS011;6932;51.438;5.470;2023-07-31T14:40:42;6.37;;;3.10;;
13720;SDS011;6932;51.438;5.470;2023-07-31T14:43:08;6.27;;;2.90;;
13720;SDS011;6932;51.438;5.470;2023-07-31T14:45:33;6.10;;;3.00;;
13720;SDS011;6932;51.438;5.470;2023-07-31T14:47:59;4.13;;;2.50;;
13720;SDS011;6932;51.438;5.470;2023-07-31T14:50:25;3.80;;;2.70;;
13720;SDS011;6932;51.438;5.470;2023-07-31T14:52:51;5.30;;;2.43;;
13720;SDS011;6932;51.438;5.470;2023-07-31T14:55:18;5.07;;;2.30;;
13720;SDS011;6932;51.438;5.470;2023-07-31T14:57:44;3.40;;;2.33;;
13720;SDS011;6932;51.438;5.470;2023-07-31T15:00:10;4.40;;;2.30;;
13720;SDS011;6932;51.438;5.470;2023-07-31T15:02:37;3.13;;;2.30;;
13720;SDS011;6932;51.438;5.470;2023-07-31T15:05:03;4.27;;;2.40;;
13720;SDS011;6932;51.438;5.470;2023-07-31T15:07:30;4.47;;;2.40;;
13720;SDS011;6932;51.438;5.470;2023-07-31T15:09:56;5.77;;;2.87;;